Star Hyperion — 3FDK6 — position and weather

sailwx.info

Track history (hours):
 
Tides and Currents Weather Stations Pressure Air Temp Water Temp Dewpoint Dewpoint Depression Visibility Wind Speed Wind Dir Waves Ship Positions

Star Hyperion

Last reported at 2018-Feb-22 23:58 UTC. Time now 2018-Feb-25 15:25 UTC.
Position N 46°15' E 030°55'.

Length 190 m; draft 10.1 m.

Type: Cargo ship. MMSI: 356370000.

Date/timePositionNaut miles runAvg speedWind from/ knotsBaromVisibWave heightAir tempDewpointWater temp
2018-Feb-22 23:58N 46°15' E 030°55'1611.1
2018-Feb-22 22:32N 46°30' E 030°55'110.8
2018-Feb-22 22:28N 46°31' E 030°55'4 9.4
2018-Feb-22 22:00N 46°34' E 031°01'37 9.3
2018-Feb-22 18:04N 46°38' E 031°54'1 8.9
2018-Feb-22 18:00N 46°38' E 031°54'4 8.9
2018-Feb-22 17:30N 46°42' E 031°56'4 8.4
2018-Feb-22 17:00N 46°46' E 031°53'4 8.7
2018-Feb-22 16:30N 46°50' E 031°56'5 9.5
2018-Feb-22 16:00N 46°54' E 032°00'3 5.3
2018-Feb-22 15:30N 46°56' E 032°01'0 0.1
2018-Feb-22 15:00N 46°56' E 032°01'0 0.0
2018-Feb-22 14:30N 46°56' E 032°01'0 0.0
2018-Feb-22 13:51N 46°56' E 032°01'0 0.0
2018-Feb-22 13:30N 46°56' E 032°01'0 0.0
2018-Feb-22 11:39N 46°56' E 032°01'0 0.0
2018-Feb-22 11:27N 46°56' E 032°01'0 0.0
2018-Feb-22 11:00N 46°56' E 032°01'0 0.0
2018-Feb-22 10:30N 46°56' E 032°01'0 0.0
2018-Feb-22 10:00N 46°56' E 032°01'0 0.0
2018-Feb-22 09:30N 46°56' E 032°01'0 0.0
2018-Feb-22 09:00N 46°56' E 032°01'0 0.0
2018-Feb-22 08:30N 46°56' E 032°01'0 0.0
2018-Feb-22 08:00N 46°56' E 032°01'0 0.0
2018-Feb-22 07:30N 46°56' E 032°01'0 0.0
2018-Feb-22 07:00N 46°56' E 032°01'0 0.0
2018-Feb-22 06:30N 46°56' E 032°01'0 0.0
2018-Feb-22 06:00N 46°56' E 032°01'0 0.0
2018-Feb-22 05:30N 46°56' E 032°01'0 0.0
2018-Feb-22 05:00N 46°56' E 032°01'0 0.0
2018-Feb-22 04:30N 46°56' E 032°01'0 0.0
2018-Feb-22 04:00N 46°56' E 032°01'0 0.0
2018-Feb-22 03:30N 46°56' E 032°01'0 0.0
2018-Feb-22 03:00N 46°56' E 032°01'0 0.0
2018-Feb-22 02:30N 46°56' E 032°01'0 0.0
2018-Feb-22 02:00N 46°56' E 032°01'0 0.0
2018-Feb-22 01:30N 46°56' E 032°01'0 0.0
2018-Feb-22 01:00N 46°56' E 032°01'0 0.0
2018-Feb-22 00:30N 46°56' E 032°01'0 0.0
2018-Feb-22 00:00N 46°56' E 032°01'0 0.0
2018-Feb-21 23:30N 46°56' E 032°01'0 0.0
2018-Feb-21 23:00N 46°56' E 032°01'0 0.0
2018-Feb-21 22:30N 46°56' E 032°01'0 0.0
2018-Feb-21 22:00N 46°56' E 032°01'0 0.0
2018-Feb-21 21:30N 46°56' E 032°01'0 0.0
2018-Feb-21 21:00N 46°56' E 032°01'0 0.0
2018-Feb-21 20:30N 46°56' E 032°01'0 0.0
2018-Feb-21 20:00N 46°56' E 032°01'0 0.0
2018-Feb-21 19:30N 46°56' E 032°01'0 0.0
2018-Feb-21 19:00N 46°56' E 032°01'0 0.0
2018-Feb-21 18:30N 46°56' E 032°01'0 0.0
2018-Feb-21 18:00N 46°56' E 032°01'0 0.0
2018-Feb-21 17:30N 46°56' E 032°01'0 0.0
2018-Feb-21 17:00N 46°56' E 032°01'0 0.0
2018-Feb-21 16:30N 46°56' E 032°01'0 0.0
2018-Feb-21 16:00N 46°56' E 032°01'0 0.0
2018-Feb-21 15:30N 46°56' E 032°01'0 0.0
2018-Feb-21 15:00N 46°56' E 032°01'0 0.0
2018-Feb-21 14:30N 46°56' E 032°01'0 0.0
2018-Feb-21 14:00N 46°56' E 032°01'0 0.0
2018-Feb-21 13:30N 46°56' E 032°01'0 0.0
2018-Feb-21 13:00N 46°56' E 032°01'0 0.0
2018-Feb-21 12:30N 46°56' E 032°01'0 0.0
2018-Feb-21 12:00N 46°56' E 032°01'0 0.0
2018-Feb-21 11:30N 46°56' E 032°01'0 0.0
2018-Feb-21 11:00N 46°56' E 032°01'0 0.0
2018-Feb-21 10:30N 46°56' E 032°01'0 0.0
2018-Feb-21 10:00N 46°56' E 032°01'0 0.0
2018-Feb-21 09:30N 46°56' E 032°01'0 0.0
2018-Feb-21 09:00N 46°56' E 032°01'0 0.0
2018-Feb-21 08:30N 46°56' E 032°01'0 0.0
2018-Feb-21 08:00N 46°56' E 032°01'0 0.0
2018-Feb-21 07:30N 46°56' E 032°01'0 0.0
2018-Feb-21 07:00N 46°56' E 032°01'0 0.0
2018-Feb-21 06:30N 46°56' E 032°01'0 0.0
2018-Feb-21 06:00N 46°56' E 032°01'0 0.0
2018-Feb-21 05:30N 46°56' E 032°01'0 0.0
2018-Feb-21 05:00N 46°56' E 032°01'0 0.0
2018-Feb-21 04:30N 46°56' E 032°01'0 0.0
2018-Feb-21 04:00N 46°56' E 032°01'0 0.0
2018-Feb-21 03:30N 46°56' E 032°01'0 0.0
2018-Feb-21 03:00N 46°56' E 032°01'0 0.0
2018-Feb-21 02:30N 46°56' E 032°01'0 0.0
2018-Feb-21 02:00N 46°56' E 032°01'0 0.0
2018-Feb-21 01:30N 46°56' E 032°01'0 0.0
2018-Feb-21 01:00N 46°56' E 032°01'0 0.0
2018-Feb-21 00:30N 46°56' E 032°01'0 0.0
2018-Feb-21 00:00N 46°56' E 032°01'0 0.0
2018-Feb-20 23:30N 46°56' E 032°01'0 0.0
2018-Feb-20 23:00N 46°56' E 032°01'0 0.0
2018-Feb-20 22:30N 46°56' E 032°01'0 0.0
2018-Feb-20 22:00N 46°56' E 032°01'0 0.0
2018-Feb-20 21:30N 46°56' E 032°01'0 0.0
2018-Feb-20 21:00N 46°56' E 032°01'0 0.0
2018-Feb-20 20:30N 46°56' E 032°01'0 0.0
2018-Feb-20 20:00N 46°56' E 032°01'0 0.0
2018-Feb-20 19:30N 46°56' E 032°01'0 0.0
2018-Feb-20 19:00N 46°56' E 032°01'0 0.0
2018-Feb-20 18:30N 46°56' E 032°01'0 0.0
2018-Feb-20 18:00N 46°56' E 032°01'0 0.0
2018-Feb-20 17:30N 46°56' E 032°01'0 0.0
2018-Feb-20 17:00N 46°56' E 032°01'0 0.6
2018-Feb-20 16:30N 46°56' E 032°01'0 0.1
2018-Feb-20 15:58N 46°56' E 032°01'0 0.0
2018-Feb-20 15:28N 46°56' E 032°01'0 0.0
2018-Feb-20 14:55N 46°56' E 032°01'0 0.0
2018-Feb-20 14:28N 46°56' E 032°01'0 0.0
2018-Feb-20 13:58N 46°56' E 032°01'0 0.0
2018-Feb-20 13:28N 46°56' E 032°01'0 0.0
2018-Feb-20 12:55N 46°56' E 032°01'0 0.0
2018-Feb-20 12:28N 46°56' E 032°01'0 0.0
2018-Feb-20 11:58N 46°56' E 032°01'0 0.1
2018-Feb-20 11:28N 46°56' E 032°01'0 0.0
2018-Feb-20 10:58N 46°56' E 032°01'0 0.1
2018-Feb-20 10:28N 46°56' E 032°01'0 0.0
2018-Feb-20 09:58N 46°56' E 032°01'0 0.0
2018-Feb-20 09:28N 46°56' E 032°01'0 0.0
2018-Feb-20 08:58N 46°56' E 032°01'0 0.0
2018-Feb-20 08:28N 46°56' E 032°01'0 0.0
2018-Feb-20 07:58N 46°56' E 032°01'0 0.0
2018-Feb-20 07:28N 46°56' E 032°01'0 0.0
2018-Feb-20 06:58N 46°56' E 032°01'0 0.0
2018-Feb-20 06:28N 46°56' E 032°01'0 0.0
2018-Feb-20 05:58N 46°56' E 032°01'0 0.0
2018-Feb-20 05:28N 46°56' E 032°01'0 0.0
2018-Feb-20 04:58N 46°56' E 032°01'0 0.0
2018-Feb-20 04:28N 46°56' E 032°01'0 0.0
2018-Feb-20 03:58N 46°56' E 032°01'0 0.0
2018-Feb-20 03:25N 46°56' E 032°01'0 0.0
2018-Feb-20 02:58N 46°56' E 032°01'0 0.0
2018-Feb-20 02:28N 46°56' E 032°01'0 0.0
2018-Feb-20 01:58N 46°56' E 032°01'0 0.0
2018-Feb-20 01:28N 46°56' E 032°01'0 0.0
2018-Feb-20 00:58N 46°56' E 032°01'0 0.0
2018-Feb-20 00:28N 46°56' E 032°01'0 0.0
2018-Feb-19 23:58N 46°56' E 032°01'0 0.0
2018-Feb-19 23:28N 46°56' E 032°01'0 0.0
2018-Feb-19 22:58N 46°56' E 032°01'0 0.0
2018-Feb-19 22:28N 46°56' E 032°01'0 0.0
2018-Feb-19 21:58N 46°56' E 032°01'0 0.0
2018-Feb-19 21:25N 46°56' E 032°01'0 0.0
2018-Feb-19 20:58N 46°56' E 032°01'0 0.0
2018-Feb-19 20:28N 46°56' E 032°01'0 0.0
2018-Feb-19 19:58N 46°56' E 032°01'0 0.0
2018-Feb-19 19:28N 46°56' E 032°01'0 0.0
2018-Feb-19 18:58N 46°56' E 032°01'0 0.0
2018-Feb-19 18:28N 46°56' E 032°01'0 0.1
2018-Feb-19 17:58N 46°56' E 032°01'0 0.0
2018-Feb-19 17:28N 46°56' E 032°01'0 0.0
2018-Feb-19 16:58N 46°56' E 032°01'0 0.0
2018-Feb-19 16:28N 46°56' E 032°01'0 0.0
2018-Feb-19 15:58N 46°56' E 032°01'0 0.0
2018-Feb-19 15:28N 46°56' E 032°01'0 0.0
2018-Feb-19 14:58N 46°56' E 032°01'0 0.1
2018-Feb-19 14:28N 46°56' E 032°01'0 0.0
2018-Feb-19 13:58N 46°56' E 032°01'0 0.0
2018-Feb-19 13:28N 46°56' E 032°01'0 0.0
2018-Feb-19 12:58N 46°56' E 032°01'0 0.0
2018-Feb-19 12:28N 46°56' E 032°01'0 0.0
2018-Feb-19 11:58N 46°56' E 032°01'0 0.0
2018-Feb-19 11:28N 46°56' E 032°01'0 0.0
2018-Feb-19 10:58N 46°56' E 032°01'0 0.0
2018-Feb-19 10:28N 46°56' E 032°01'0 0.1
2018-Feb-19 10:01N 46°56' E 032°01'0 0.5
2018-Feb-19 09:30N 46°56' E 032°01'3 5.9
2018-Feb-19 09:01N 46°53' E 031°60'611.7
2018-Feb-19 08:31N 46°49' E 031°54'5 9.8
2018-Feb-19 08:00N 46°44' E 031°56'510.8
2018-Feb-19 07:31N 46°39' E 031°55'611.5
2018-Feb-19 07:00N 46°36' E 031°48'811.9
2018-Feb-19 06:19N 46°35' E 031°36'2510.6
2018-Feb-19 03:57N 46°33' E 030°59'3 6.5
2018-Feb-19 03:30N 46°30' E 030°57'3 6.2
2018-Feb-19 02:58N 46°27' E 030°57'5 8.5
2018-Feb-19 02:25N 46°23' E 030°57'510.7
2018-Feb-19 01:59N 46°19' E 031°02'1 0.1
2018-Feb-18 05:09N 46°19' E 031°04'0 0.2
2018-Feb-18 04:12N 46°19' E 031°04'0 0.0
2018-Feb-17 23:18N 46°19' E 031°04'0 0.0
2018-Feb-17 23:00N 46°19' E 031°04'0 0.0
2018-Feb-17 22:06N 46°19' E 031°04'0 0.1
2018-Feb-17 21:57N 46°19' E 031°04'0 0.0
2018-Feb-17 21:27N 46°19' E 031°04'0 0.0
2018-Feb-17 15:12N 46°19' E 031°04'0 0.0
2018-Feb-17 14:00N 46°19' E 031°04'0 0.0
2018-Feb-16 04:23N 46°19' E 031°04'0 0.0
2018-Feb-16 03:41N 46°19' E 031°04'0 0.0
2018-Feb-15 10:28N 46°19' E 031°04'0 0.0
2018-Feb-14 12:56N 46°19' E 031°04'0 0.0
2018-Feb-14 05:59N 46°19' E 031°04'0 0.0
2018-Feb-14 05:26N 46°19' E 031°04'0 0.0
2018-Feb-14 04:56N 46°19' E 031°04'0 0.0
2018-Feb-14 03:53N 46°19' E 031°04'0 0.0
2018-Feb-14 02:59N 46°19' E 031°04'0 0.0
2018-Feb-14 02:14N 46°19' E 031°04'0 0.0
2018-Feb-14 01:56N 46°19' E 031°04'0 0.0
2018-Feb-14 00:50N 46°19' E 031°04'0 0.0
2018-Feb-13 23:47N 46°19' E 031°04'0 0.0
2018-Feb-13 19:14N 46°19' E 031°04'0 0.0
2018-Feb-13 18:59N 46°19' E 031°04'0 0.0
2018-Feb-13 17:50N 46°19' E 031°04'  
Track history (hours):
 
Tides and Currents Weather Stations Pressure Air Temp Water Temp Dewpoint Dewpoint Depression Visibility Wind Speed Wind Dir Waves Ship Positions

Star Hyperion

Last reported at 2018-Feb-22 23:58 UTC. Time now 2018-Feb-25 15:25 UTC.
Position N 46°15' E 030°55'.

Length 190 m; draft 10.1 m.

Type: Cargo ship. MMSI: 356370000.

Date/timePositionNaut miles runAvg speedWind from/ knotsBaromVisibWave heightAir tempDewpointWater temp
2018-Feb-22 23:58N 46°15' E 030°55'1611.1
2018-Feb-22 22:32N 46°30' E 030°55'110.8
2018-Feb-22 22:28N 46°31' E 030°55'4 9.4
2018-Feb-22 22:00N 46°34' E 031°01'37 9.3
2018-Feb-22 18:04N 46°38' E 031°54'1 8.9
2018-Feb-22 18:00N 46°38' E 031°54'4 8.9
2018-Feb-22 17:30N 46°42' E 031°56'4 8.4
2018-Feb-22 17:00N 46°46' E 031°53'4 8.7
2018-Feb-22 16:30N 46°50' E 031°56'5 9.5
2018-Feb-22 16:00N 46°54' E 032°00'3 5.3
2018-Feb-22 15:30N 46°56' E 032°01'0 0.1
2018-Feb-22 15:00N 46°56' E 032°01'0 0.0
2018-Feb-22 14:30N 46°56' E 032°01'0 0.0
2018-Feb-22 13:51N 46°56' E 032°01'0 0.0
2018-Feb-22 13:30N 46°56' E 032°01'0 0.0
2018-Feb-22 11:39N 46°56' E 032°01'0 0.0
2018-Feb-22 11:27N 46°56' E 032°01'0 0.0
2018-Feb-22 11:00N 46°56' E 032°01'0 0.0
2018-Feb-22 10:30N 46°56' E 032°01'0 0.0
2018-Feb-22 10:00N 46°56' E 032°01'0 0.0
2018-Feb-22 09:30N 46°56' E 032°01'0 0.0
2018-Feb-22 09:00N 46°56' E 032°01'0 0.0
2018-Feb-22 08:30N 46°56' E 032°01'0 0.0
2018-Feb-22 08:00N 46°56' E 032°01'0 0.0
2018-Feb-22 07:30N 46°56' E 032°01'0 0.0
2018-Feb-22 07:00N 46°56' E 032°01'0 0.0
2018-Feb-22 06:30N 46°56' E 032°01'0 0.0
2018-Feb-22 06:00N 46°56' E 032°01'0 0.0
2018-Feb-22 05:30N 46°56' E 032°01'0 0.0
2018-Feb-22 05:00N 46°56' E 032°01'0 0.0
2018-Feb-22 04:30N 46°56' E 032°01'0 0.0
2018-Feb-22 04:00N 46°56' E 032°01'0 0.0
2018-Feb-22 03:30N 46°56' E 032°01'0 0.0
2018-Feb-22 03:00N 46°56' E 032°01'0 0.0
2018-Feb-22 02:30N 46°56' E 032°01'0 0.0
2018-Feb-22 02:00N 46°56' E 032°01'0 0.0
2018-Feb-22 01:30N 46°56' E 032°01'0 0.0
2018-Feb-22 01:00N 46°56' E 032°01'0 0.0
2018-Feb-22 00:30N 46°56' E 032°01'0 0.0
2018-Feb-22 00:00N 46°56' E 032°01'0 0.0
2018-Feb-21 23:30N 46°56' E 032°01'0 0.0
2018-Feb-21 23:00N 46°56' E 032°01'0 0.0
2018-Feb-21 22:30N 46°56' E 032°01'0 0.0
2018-Feb-21 22:00N 46°56' E 032°01'0 0.0
2018-Feb-21 21:30N 46°56' E 032°01'0 0.0
2018-Feb-21 21:00N 46°56' E 032°01'0 0.0
2018-Feb-21 20:30N 46°56' E 032°01'0 0.0
2018-Feb-21 20:00N 46°56' E 032°01'0 0.0
2018-Feb-21 19:30N 46°56' E 032°01'0 0.0
2018-Feb-21 19:00N 46°56' E 032°01'0 0.0
2018-Feb-21 18:30N 46°56' E 032°01'0 0.0
2018-Feb-21 18:00N 46°56' E 032°01'0 0.0
2018-Feb-21 17:30N 46°56' E 032°01'0 0.0
2018-Feb-21 17:00N 46°56' E 032°01'0 0.0
2018-Feb-21 16:30N 46°56' E 032°01'0 0.0
2018-Feb-21 16:00N 46°56' E 032°01'0 0.0
2018-Feb-21 15:30N 46°56' E 032°01'0 0.0
2018-Feb-21 15:00N 46°56' E 032°01'0 0.0
2018-Feb-21 14:30N 46°56' E 032°01'0 0.0
2018-Feb-21 14:00N 46°56' E 032°01'0 0.0
2018-Feb-21 13:30N 46°56' E 032°01'0 0.0
2018-Feb-21 13:00N 46°56' E 032°01'0 0.0
2018-Feb-21 12:30N 46°56' E 032°01'0 0.0
2018-Feb-21 12:00N 46°56' E 032°01'0 0.0
2018-Feb-21 11:30N 46°56' E 032°01'0 0.0
2018-Feb-21 11:00N 46°56' E 032°01'0 0.0
2018-Feb-21 10:30N 46°56' E 032°01'0 0.0
2018-Feb-21 10:00N 46°56' E 032°01'0 0.0
2018-Feb-21 09:30N 46°56' E 032°01'0 0.0
2018-Feb-21 09:00N 46°56' E 032°01'0 0.0
2018-Feb-21 08:30N 46°56' E 032°01'0 0.0
2018-Feb-21 08:00N 46°56' E 032°01'0 0.0
2018-Feb-21 07:30N 46°56' E 032°01'0 0.0
2018-Feb-21 07:00N 46°56' E 032°01'0 0.0
2018-Feb-21 06:30N 46°56' E 032°01'0 0.0
2018-Feb-21 06:00N 46°56' E 032°01'0 0.0
2018-Feb-21 05:30N 46°56' E 032°01'0 0.0
2018-Feb-21 05:00N 46°56' E 032°01'0 0.0
2018-Feb-21 04:30N 46°56' E 032°01'0 0.0
2018-Feb-21 04:00N 46°56' E 032°01'0 0.0
2018-Feb-21 03:30N 46°56' E 032°01'0 0.0
2018-Feb-21 03:00N 46°56' E 032°01'0 0.0
2018-Feb-21 02:30N 46°56' E 032°01'0 0.0
2018-Feb-21 02:00N 46°56' E 032°01'0 0.0
2018-Feb-21 01:30N 46°56' E 032°01'0 0.0
2018-Feb-21 01:00N 46°56' E 032°01'0 0.0
2018-Feb-21 00:30N 46°56' E 032°01'0 0.0
2018-Feb-21 00:00N 46°56' E 032°01'0 0.0
2018-Feb-20 23:30N 46°56' E 032°01'0 0.0
2018-Feb-20 23:00N 46°56' E 032°01'0 0.0
2018-Feb-20 22:30N 46°56' E 032°01'0 0.0
2018-Feb-20 22:00N 46°56' E 032°01'0 0.0
2018-Feb-20 21:30N 46°56' E 032°01'0 0.0
2018-Feb-20 21:00N 46°56' E 032°01'0 0.0
2018-Feb-20 20:30N 46°56' E 032°01'0 0.0
2018-Feb-20 20:00N 46°56' E 032°01'0 0.0
2018-Feb-20 19:30N 46°56' E 032°01'0 0.0
2018-Feb-20 19:00N 46°56' E 032°01'0 0.0
2018-Feb-20 18:30N 46°56' E 032°01'0 0.0
2018-Feb-20 18:00N 46°56' E 032°01'0 0.0
2018-Feb-20 17:30N 46°56' E 032°01'0 0.0
2018-Feb-20 17:00N 46°56' E 032°01'0 0.6
2018-Feb-20 16:30N 46°56' E 032°01'0 0.1
2018-Feb-20 15:58N 46°56' E 032°01'0 0.0
2018-Feb-20 15:28N 46°56' E 032°01'0 0.0
2018-Feb-20 14:55N 46°56' E 032°01'0 0.0
2018-Feb-20 14:28N 46°56' E 032°01'0 0.0
2018-Feb-20 13:58N 46°56' E 032°01'0 0.0
2018-Feb-20 13:28N 46°56' E 032°01'0 0.0
2018-Feb-20 12:55N 46°56' E 032°01'0 0.0
2018-Feb-20 12:28N 46°56' E 032°01'0 0.0
2018-Feb-20 11:58N 46°56' E 032°01'0 0.1
2018-Feb-20 11:28N 46°56' E 032°01'0 0.0
2018-Feb-20 10:58N 46°56' E 032°01'0 0.1
2018-Feb-20 10:28N 46°56' E 032°01'0 0.0
2018-Feb-20 09:58N 46°56' E 032°01'0 0.0
2018-Feb-20 09:28N 46°56' E 032°01'0 0.0
2018-Feb-20 08:58N 46°56' E 032°01'0 0.0
2018-Feb-20 08:28N 46°56' E 032°01'0 0.0
2018-Feb-20 07:58N 46°56' E 032°01'0 0.0
2018-Feb-20 07:28N 46°56' E 032°01'0 0.0
2018-Feb-20 06:58N 46°56' E 032°01'0 0.0
2018-Feb-20 06:28N 46°56' E 032°01'0 0.0
2018-Feb-20 05:58N 46°56' E 032°01'0 0.0
2018-Feb-20 05:28N 46°56' E 032°01'0 0.0
2018-Feb-20 04:58N 46°56' E 032°01'0 0.0
2018-Feb-20 04:28N 46°56' E 032°01'0 0.0
2018-Feb-20 03:58N 46°56' E 032°01'0 0.0
2018-Feb-20 03:25N 46°56' E 032°01'0 0.0
2018-Feb-20 02:58N 46°56' E 032°01'0 0.0
2018-Feb-20 02:28N 46°56' E 032°01'0 0.0
2018-Feb-20 01:58N 46°56' E 032°01'0 0.0
2018-Feb-20 01:28N 46°56' E 032°01'0 0.0
2018-Feb-20 00:58N 46°56' E 032°01'0 0.0
2018-Feb-20 00:28N 46°56' E 032°01'0 0.0
2018-Feb-19 23:58N 46°56' E 032°01'0 0.0
2018-Feb-19 23:28N 46°56' E 032°01'0 0.0
2018-Feb-19 22:58N 46°56' E 032°01'0 0.0
2018-Feb-19 22:28N 46°56' E 032°01'0 0.0
2018-Feb-19 21:58N 46°56' E 032°01'0 0.0
2018-Feb-19 21:25N 46°56' E 032°01'0 0.0
2018-Feb-19 20:58N 46°56' E 032°01'0 0.0
2018-Feb-19 20:28N 46°56' E 032°01'0 0.0
2018-Feb-19 19:58N 46°56' E 032°01'0 0.0
2018-Feb-19 19:28N 46°56' E 032°01'0 0.0
2018-Feb-19 18:58N 46°56' E 032°01'0 0.0
2018-Feb-19 18:28N 46°56' E 032°01'0 0.1
2018-Feb-19 17:58N 46°56' E 032°01'0 0.0
2018-Feb-19 17:28N 46°56' E 032°01'0 0.0
2018-Feb-19 16:58N 46°56' E 032°01'0 0.0
2018-Feb-19 16:28N 46°56' E 032°01'0 0.0
2018-Feb-19 15:58N 46°56' E 032°01'0 0.0
2018-Feb-19 15:28N 46°56' E 032°01'0 0.0
2018-Feb-19 14:58N 46°56' E 032°01'0 0.1
2018-Feb-19 14:28N 46°56' E 032°01'0 0.0
2018-Feb-19 13:58N 46°56' E 032°01'0 0.0
2018-Feb-19 13:28N 46°56' E 032°01'0 0.0
2018-Feb-19 12:58N 46°56' E 032°01'0 0.0
2018-Feb-19 12:28N 46°56' E 032°01'0 0.0
2018-Feb-19 11:58N 46°56' E 032°01'0 0.0
2018-Feb-19 11:28N 46°56' E 032°01'0 0.0
2018-Feb-19 10:58N 46°56' E 032°01'0 0.0
2018-Feb-19 10:28N 46°56' E 032°01'0 0.1
2018-Feb-19 10:01N 46°56' E 032°01'0 0.5
2018-Feb-19 09:30N 46°56' E 032°01'3 5.9
2018-Feb-19 09:01N 46°53' E 031°60'611.7
2018-Feb-19 08:31N 46°49' E 031°54'5 9.8
2018-Feb-19 08:00N 46°44' E 031°56'510.8
2018-Feb-19 07:31N 46°39' E 031°55'611.5
2018-Feb-19 07:00N 46°36' E 031°48'811.9
2018-Feb-19 06:19N 46°35' E 031°36'2510.6
2018-Feb-19 03:57N 46°33' E 030°59'3 6.5
2018-Feb-19 03:30N 46°30' E 030°57'3 6.2
2018-Feb-19 02:58N 46°27' E 030°57'5 8.5
2018-Feb-19 02:25N 46°23' E 030°57'510.7
2018-Feb-19 01:59N 46°19' E 031°02'1 0.1
2018-Feb-18 05:09N 46°19' E 031°04'0 0.2
2018-Feb-18 04:12N 46°19' E 031°04'0 0.0
2018-Feb-17 23:18N 46°19' E 031°04'0 0.0
2018-Feb-17 23:00N 46°19' E 031°04'0 0.0
2018-Feb-17 22:06N 46°19' E 031°04'0 0.1
2018-Feb-17 21:57N 46°19' E 031°04'0 0.0
2018-Feb-17 21:27N 46°19' E 031°04'0 0.0
2018-Feb-17 15:12N 46°19' E 031°04'0 0.0
2018-Feb-17 14:00N 46°19' E 031°04'0 0.0
2018-Feb-16 04:23N 46°19' E 031°04'0 0.0
2018-Feb-16 03:41N 46°19' E 031°04'0 0.0
2018-Feb-15 10:28N 46°19' E 031°04'0 0.0
2018-Feb-14 12:56N 46°19' E 031°04'0 0.0
2018-Feb-14 05:59N 46°19' E 031°04'0 0.0
2018-Feb-14 05:26N 46°19' E 031°04'0 0.0
2018-Feb-14 04:56N 46°19' E 031°04'0 0.0
2018-Feb-14 03:53N 46°19' E 031°04'0 0.0
2018-Feb-14 02:59N 46°19' E 031°04'0 0.0
2018-Feb-14 02:14N 46°19' E 031°04'0 0.0
2018-Feb-14 01:56N 46°19' E 031°04'0 0.0
2018-Feb-14 00:50N 46°19' E 031°04'0 0.0
2018-Feb-13 23:47N 46°19' E 031°04'0 0.0
2018-Feb-13 19:14N 46°19' E 031°04'0 0.0
2018-Feb-13 18:59N 46°19' E 031°04'0 0.0
2018-Feb-13 17:50N 46°19' E 031°04'  

Dump ship's entire track history